Time;durP1;ratioP1;P1;durP2;ratioP2;P2;SDS_P1;SDS_P2;PMS_P1;PMS_P2;Temp;Humidity;BMP_temperature;BMP_pressure;BME280_temperature;BME280_humidity;BME280_pressure;Samples;Min_cycle;Max_cycle;Signal;HPM_P1;HPM_P2
2020/12/03 00:01:18;;;;;;;42.22;24.20;;;6.90;92.40;;;;;;5019292;28;20148;-85
2020/12/03 00:03:49;;;;;;;43.35;25.45;;;6.90;92.40;;;;;;5028772;28;20075;-87
2020/12/03 00:06:19;;;;;;;41.97;26.00;;;6.90;92.40;;;;;;5015381;28;20436;-85
2020/12/03 00:08:51;;;;;;;41.72;25.30;;;6.90;92.40;;;;;;5048691;28;20018;-85
2020/12/03 00:11:21;;;;;;;43.10;24.92;;;6.80;92.40;;;;;;5033428;28;20433;-85
2020/12/03 00:13:47;;;;;;;43.33;24.60;;;6.90;92.40;;;;;;5034535;28;20458;-85
2020/12/03 00:16:13;;;;;;;47.25;26.65;;;6.90;92.40;;;;;;5048239;28;20056;-85
2020/12/03 00:18:39;;;;;;;50.30;28.55;;;6.80;92.40;;;;;;5031362;28;20017;-84
2020/12/03 00:21:12;;;;;;;43.28;27.25;;;6.80;92.40;;;;;;5029686;28;20034;-85
2020/12/03 00:23:38;;;;;;;47.83;27.85;;;6.80;92.40;;;;;;5031759;28;20037;-84
2020/12/03 00:26:06;;;;;;;42.33;26.48;;;6.90;92.40;;;;;;5056839;28;20029;-86
2020/12/03 00:28:38;;;;;;;44.58;27.15;;;6.90;92.40;;;;;;5053278;28;20084;-85
2020/12/03 00:31:13;;;;;;;44.45;26.50;;;6.90;92.40;;;;;;5047742;28;20050;-84
2020/12/03 00:33:39;;;;;;;45.05;25.67;;;6.90;92.40;;;;;;5031810;28;20392;-84
2020/12/03 00:36:05;;;;;;;42.05;26.70;;;6.90;92.40;;;;;;5016378;28;20041;-84
2020/12/03 00:38:33;;;;;;;50.13;27.70;;;6.90;92.40;;;;;;5048083;28;20030;-85
2020/12/03 00:40:58;;;;;;;48.35;27.58;;;6.90;92.40;;;;;;5026451;28;20065;-85
2020/12/03 00:43:26;;;;;;;47.10;27.95;;;6.80;92.40;;;;;;5018027;28;20061;-85
2020/12/03 00:45:52;;;;;;;53.17;28.88;;;6.90;92.40;;;;;;5034575;28;20108;-85
2020/12/03 00:48:28;;;;;;;47.63;28.05;;;6.90;92.40;;;;;;5035290;28;20109;-85
2020/12/03 00:50:53;;;;;;;50.35;28.42;;;6.90;92.40;;;;;;5033785;28;20025;-85
2020/12/03 00:53:21;;;;;;;45.92;26.80;;;6.90;92.40;;;;;;5033717;28;20032;-85
2020/12/03 00:55:56;;;;;;;47.50;26.85;;;6.90;92.40;;;;;;5009720;28;20026;-85
2020/12/03 00:58:22;;;;;;;48.10;27.50;;;6.80;92.40;;;;;;5034470;28;20055;-85
2020/12/03 01:00:53;;;;;;;49.88;26.92;;;6.90;92.40;;;;;;5020970;28;20038;-85
2020/12/03 01:03:18;;;;;;;44.38;25.95;;;6.90;92.40;;;;;;5051205;28;20431;-85
2020/12/03 01:05:44;;;;;;;46.83;25.75;;;6.90;92.40;;;;;;5028762;28;20037;-84
2020/12/03 01:08:10;;;;;;;45.40;25.15;;;6.90;92.40;;;;;;5066775;28;20503;-86
2020/12/03 01:10:36;;;;;;;49.83;27.40;;;6.90;92.40;;;;;;5064001;28;20017;-85
2020/12/03 01:13:06;;;;;;;47.85;27.90;;;6.90;92.70;;;;;;5062805;28;20030;-85
2020/12/03 01:15:32;;;;;;;45.15;26.75;;;6.90;92.40;;;;;;5052241;28;20025;-84
2020/12/03 01:17:58;;;;;;;49.83;27.60;;;6.90;92.40;;;;;;5060421;28;20029;-85
2020/12/03 01:20:34;;;;;;;44.95;26.35;;;6.90;92.40;;;;;;5066348;28;20029;-85
2020/12/03 01:23:00;;;;;;;47.92;25.77;;;6.90;92.40;;;;;;5035371;28;20025;-85
2020/12/03 01:25:30;;;;;;;52.55;26.77;;;6.90;92.40;;;;;;5061036;28;20029;-85
2020/12/03 01:27:56;;;;;;;46.63;26.48;;;6.90;92.40;;;;;;5046895;28;20022;-85
2020/12/03 01:30:24;;;;;;;47.08;28.00;;;6.90;92.40;;;;;;5047096;28;20050;-85
2020/12/03 01:32:56;;;;;;;43.97;26.70;;;6.90;92.40;;;;;;5048358;28;20060;-85
2020/12/03 01:35:24;;;;;;;48.50;26.60;;;6.90;92.40;;;;;;5021260;28;20522;-85
2020/12/03 01:37:51;;;;;;;48.45;27.60;;;6.90;92.40;;;;;;5016856;28;20475;-85
2020/12/03 01:40:22;;;;;;;47.22;27.13;;;6.90;92.40;;;;;;5049606;28;20026;-84
2020/12/03 01:42:51;;;;;;;46.40;27.33;;;6.90;92.40;;;;;;5046013;28;20025;-85
2020/12/03 01:45:45;;;;;;;46.80;26.65;;;6.90;92.40;;;;;;5036578;28;20382;-85
2020/12/03 01:48:37;;;;;;;43.63;27.63;;;6.90;92.40;;;;;;5036486;28;20382;-85
2020/12/03 01:51:25;;;;;;;46.35;26.73;;;6.90;92.40;;;;;;5049137;28;20470;-85
2020/12/03 01:54:02;;;;;;;43.97;25.42;;;6.90;92.40;;;;;;5035148;28;20475;-85
2020/12/03 02:04:10;;;;;;;37.28;23.20;;;6.80;92.30;;;;;;5051736;28;20421;-84
2020/12/03 02:06:39;;;;;;;39.05;23.42;;;6.80;92.30;;;;;;5042988;28;20392;-84
2020/12/03 02:09:06;;;;;;;40.97;23.08;;;6.80;92.30;;;;;;5032966;28;20025;-88
2020/12/03 02:11:50;;;;;;;40.33;23.85;;;6.80;92.30;;;;;;5062217;28;20035;-84
2020/12/03 02:14:16;;;;;;;42.38;24.30;;;6.80;92.30;;;;;;5056359;28;20025;-85
2020/12/03 02:16:42;;;;;;;39.30;22.63;;;6.80;92.30;;;;;;5054629;28;20029;-85
2020/12/03 02:19:21;;;;;;;37.95;23.23;;;6.80;92.30;;;;;;5073457;28;20086;-85
2020/12/03 02:22:05;;;;;;;39.45;23.33;;;6.80;92.30;;;;;;5061474;28;20032;-84
2020/12/03 02:24:42;;;;;;;38.08;23.02;;;6.80;92.30;;;;;;5059869;28;20079;-84
2020/12/03 02:27:14;;;;;;;43.78;24.25;;;6.80;92.30;;;;;;5051172;28;20098;-84
2020/12/03 02:29:39;;;;;;;36.75;22.58;;;6.80;92.30;;;;;;5032630;28;20021;-84
2020/12/03 02:32:08;;;;;;;38.35;23.80;;;6.80;92.20;;;;;;5041037;28;20102;-84
2020/12/03 02:34:34;;;;;;;36.03;21.73;;;6.80;92.30;;;;;;5056497;28;20074;-84
2020/12/03 02:37:03;;;;;;;36.85;22.63;;;6.80;92.20;;;;;;5055950;28;20033;-84
2020/12/03 02:39:32;;;;;;;40.40;22.25;;;6.80;92.20;;;;;;5061939;28;20119;-84
2020/12/03 02:42:00;;;;;;;39.30;22.83;;;6.80;92.20;;;;;;5042295;28;20073;-84
2020/12/03 02:44:26;;;;;;;40.60;22.52;;;6.70;92.20;;;;;;5032299;28;20466;-85
2020/12/03 02:46:58;;;;;;;37.83;21.30;;;6.80;92.20;;;;;;5084203;28;20029;-83
2020/12/03 02:49:23;;;;;;;36.25;21.58;;;6.70;92.20;;;;;;5051286;28;20163;-84
2020/12/03 02:51:51;;;;;;;35.70;21.05;;;6.70;92.20;;;;;;5049156;28;20100;-84
2020/12/03 02:54:17;;;;;;;33.72;20.33;;;6.70;92.20;;;;;;5097986;28;20048;-84
2020/12/03 02:56:51;;;;;;;35.45;21.00;;;6.70;92.20;;;;;;5051088;28;20159;-84
2020/12/03 02:59:16;;;;;;;34.80;20.80;;;6.70;92.20;;;;;;5052965;28;20024;-83
2020/12/03 03:01:47;;;;;;;38.67;21.85;;;6.70;92.20;;;;;;5040383;28;20037;-84
2020/12/03 03:04:16;;;;;;;33.75;20.60;;;6.70;92.20;;;;;;5025863;28;20053;-84
2020/12/03 03:06:41;;;;;;;33.65;19.73;;;6.60;92.20;;;;;;5022351;28;20029;-84
2020/12/03 03:09:15;;;;;;;35.20;19.98;;;6.70;92.20;;;;;;5031575;28;20522;-84
2020/12/03 03:11:43;;;;;;;31.35;19.27;;;6.70;92.20;;;;;;5032172;28;20025;-84
2020/12/03 03:14:09;;;;;;;31.98;19.42;;;6.70;92.20;;;;;;5039808;28;20029;-84
2020/12/03 03:16:40;;;;;;;35.13;20.33;;;6.60;92.20;;;;;;5054945;28;20078;-87
2020/12/03 03:19:06;;;;;;;33.35;20.27;;;6.70;92.20;;;;;;5061800;28;20102;-84
2020/12/03 03:21:32;;;;;;;30.17;20.15;;;6.60;92.20;;;;;;5054795;28;20044;-84
2020/12/03 03:23:58;;;;;;;32.50;19.02;;;6.60;92.20;;;;;;5068305;28;20120;-83
2020/12/03 03:26:24;;;;;;;34.20;20.52;;;6.60;92.20;;;;;;5071685;28;20505;-83
2020/12/03 03:28:53;;;;;;;34.70;19.42;;;6.60;92.20;;;;;;5063904;28;20408;-84
2020/12/03 03:31:22;;;;;;;34.47;19.90;;;6.60;92.20;;;;;;5053015;28;20029;-84
2020/12/03 03:33:48;;;;;;;35.47;20.05;;;6.60;92.10;;;;;;5055765;28;20458;-85
2020/12/03 03:36:15;;;;;;;32.15;18.75;;;6.60;92.20;;;;;;5064654;28;20116;-84
2020/12/03 03:38:42;;;;;;;29.27;18.20;;;6.60;92.20;;;;;;5031526;28;20091;-84
2020/12/03 03:41:21;;;;;;;36.38;20.08;;;6.60;92.10;;;;;;5048938;28;20044;-84
2020/12/03 03:43:47;;;;;;;33.38;18.95;;;6.60;92.10;;;;;;5031757;28;20441;-84
2020/12/03 03:46:13;;;;;;;34.03;19.33;;;6.60;92.10;;;;;;5039706;28;20032;-85
2020/12/03 03:48:39;;;;;;;37.08;19.42;;;6.60;92.10;;;;;;5052005;28;20463;-84
2020/12/03 03:51:10;;;;;;;29.95;18.40;;;6.60;92.10;;;;;;5044370;28;20072;-84
2020/12/03 03:53:36;;;;;;;31.33;19.05;;;6.60;92.10;;;;;;5035240;28;20033;-85
2020/12/03 03:56:02;;;;;;;32.65;18.92;;;6.60;92.10;;;;;;5031773;28;20029;-84
2020/12/03 03:58:31;;;;;;;34.85;19.23;;;6.50;92.10;;;;;;5036073;28;20031;-84
2020/12/03 04:00:59;;;;;;;30.73;17.15;;;6.60;92.10;;;;;;5068062;28;20041;-84
2020/12/03 04:03:33;;;;;;;33.47;19.08;;;6.60;92.10;;;;;;5052654;28;20076;-84
2020/12/03 04:05:59;;;;;;;32.80;19.23;;;6.60;92.10;;;;;;5035185;28;20055;-84
2020/12/03 04:08:31;;;;;;;33.10;18.80;;;6.60;92.10;;;;;;5033318;28;20026;-84
2020/12/03 04:10:57;;;;;;;30.75;17.95;;;6.60;92.10;;;;;;5031780;28;20497;-84
2020/12/03 04:13:27;;;;;;;31.65;17.85;;;6.60;92.10;;;;;;5036500;28;20057;-84
2020/12/03 04:15:55;;;;;;;28.77;16.98;;;6.60;92.10;;;;;;5055327;28;20373;-85
2020/12/03 04:18:26;;;;;;;32.53;18.25;;;6.60;92.10;;;;;;5035197;28;20038;-84
2020/12/03 04:20:57;;;;;;;31.85;18.40;;;6.60;92.10;;;;;;5071815;28;20499;-84
2020/12/03 04:23:23;;;;;;;29.20;17.70;;;6.60;92.10;;;;;;5070278;28;20025;-84
2020/12/03 04:25:49;;;;;;;31.00;18.25;;;6.60;92.10;;;;;;5071466;28;20025;-83
2020/12/03 04:28:16;;;;;;;30.23;18.42;;;6.60;92.10;;;;;;5072627;28;20102;-83
2020/12/03 04:30:41;;;;;;;34.08;19.80;;;6.60;92.10;;;;;;5061031;28;20044;-83
2020/12/03 04:33:07;;;;;;;35.17;18.83;;;6.60;92.10;;;;;;5046264;28;20428;-83
2020/12/03 04:35:36;;;;;;;28.55;19.02;;;6.60;92.10;;;;;;5050813;28;20542;-83
2020/12/03 04:38:14;;;;;;;32.72;19.15;;;6.60;92.10;;;;;;5058422;28;20033;-83
2020/12/03 04:40:45;;;;;;;34.42;18.55;;;6.60;92.10;;;;;;5052835;28;20041;-83
2020/12/03 04:43:19;;;;;;;31.10;17.23;;;6.60;92.10;;;;;;5060575;28;20025;-83
2020/12/03 04:46:00;;;;;;;35.15;19.10;;;6.60;92.10;;;;;;5058023;28;20052;-83
2020/12/03 04:48:37;;;;;;;32.67;17.70;;;6.60;92.10;;;;;;5069405;28;20032;-83
2020/12/03 04:51:28;;;;;;;33.72;18.75;;;6.60;92.10;;;;;;5074954;28;20028;-84
2020/12/03 04:54:02;;;;;;;29.97;17.63;;;6.60;92.10;;;;;;5060447;28;20020;-83
2020/12/03 04:56:42;;;;;;;32.60;17.60;;;6.60;92.10;;;;;;5055534;28;20489;-86
2020/12/03 04:59:45;;;;;;;31.15;18.05;;;6.70;92.10;;;;;;5055992;28;20107;-83
2020/12/03 05:02:40;;;;;;;30.73;16.90;;;6.70;92.10;;;;;;5054997;28;20481;-83
2020/12/03 05:05:52;;;;;;;27.67;17.58;;;6.70;92.10;;;;;;5067017;28;20078;-83
2020/12/03 05:08:46;;;;;;;30.98;17.48;;;6.70;92.10;;;;;;5048959;28;20041;-84
2020/12/03 05:11:25;;;;;;;27.90;16.83;;;6.70;92.10;;;;;;5035621;28;20033;-84
2020/12/03 05:13:58;;;;;;;28.55;17.55;;;6.70;92.10;;;;;;5045928;28;20112;-84
2020/12/03 05:16:45;;;;;;;28.52;17.45;;;6.70;92.10;;;;;;5044136;28;20032;-84
2020/12/03 05:19:46;;;;;;;32.70;17.90;;;6.70;92.10;;;;;;5054441;28;20028;-86
2020/12/03 05:22:31;;;;;;;31.73;17.90;;;6.70;92.10;;;;;;4998524;28;20053;-82
2020/12/03 05:24:57;;;;;;;30.23;18.20;;;6.70;92.10;;;;;;5045111;28;20027;-84
2020/12/03 05:27:30;;;;;;;34.38;19.40;;;6.70;92.10;;;;;;5060597;28;20444;-84
2020/12/03 05:29:58;;;;;;;36.08;18.98;;;6.70;92.10;;;;;;5042687;28;20085;-85
2020/12/03 05:32:27;;;;;;;28.63;17.92;;;6.70;92.10;;;;;;5046280;28;20040;-84
2020/12/03 05:35:01;;;;;;;33.63;18.77;;;6.70;92.10;;;;;;5035181;28;20036;-84
2020/12/03 05:37:31;;;;;;;27.45;18.02;;;6.70;92.10;;;;;;5031877;28;20029;-83
2020/12/03 05:40:09;;;;;;;27.85;18.27;;;6.70;92.10;;;;;;5034192;28;20021;-84
2020/12/03 05:42:39;;;;;;;32.72;18.70;;;6.70;92.10;;;;;;5033524;28;20021;-84
2020/12/03 05:45:21;;;;;;;29.00;18.42;;;6.80;92.10;;;;;;5039559;28;20388;-83
2020/12/03 05:47:58;;;;;;;29.15;17.33;;;6.70;92.10;;;;;;5056532;28;20028;-84
2020/12/03 05:50:55;;;;;;;29.55;17.92;;;6.70;92.10;;;;;;5046705;28;20567;-84
2020/12/03 05:53:30;;;;;;;30.67;18.42;;;6.70;92.10;;;;;;5021744;28;20124;-85
2020/12/03 05:56:19;;;;;;;27.73;17.17;;;6.70;92.10;;;;;;5021880;28;20074;-84
2020/12/03 05:58:47;;;;;;;28.92;16.73;;;6.70;92.10;;;;;;5045507;28;20022;-84
2020/12/03 06:01:14;;;;;;;26.70;16.27;;;6.70;92.10;;;;;;5049160;28;20051;-85
2020/12/03 06:04:02;;;;;;;;;;;;;;;;;;;;;
2020/12/03 06:06:49;;;;;;;23.65;15.43;;;6.80;92.20;;;;;;5050646;28;20029;-84
2020/12/03 06:09:44;;;;;;;20.17;13.95;;;6.70;92.20;;;;;;5086527;28;20028;-84
2020/12/03 06:12:45;;;;;;;23.50;14.63;;;6.70;92.20;;;;;;5083841;28;20037;-84
2020/12/03 06:15:36;;;;;;;19.52;13.80;;;6.70;92.20;;;;;;5045804;28;20024;-85
2020/12/03 06:18:38;;;;;;;20.20;14.05;;;6.70;92.20;;;;;;5042115;28;20040;-84
2020/12/03 06:21:27;;;;;;;18.20;13.32;;;6.70;92.20;;;;;;5040938;28;20124;-85
2020/12/03 06:24:20;;;;;;;19.25;13.02;;;6.70;92.30;;;;;;5032691;28;20056;-84
2020/12/03 06:27:10;;;;;;;18.25;12.27;;;6.70;92.30;;;;;;5075585;28;20021;-86
2020/12/03 06:29:58;;;;;;;18.40;13.05;;;6.70;92.30;;;;;;5042192;28;20018;-86
2020/12/03 06:33:13;;;;;;;18.08;13.07;;;6.70;92.30;;;;;;5033963;28;20030;-86
2020/12/03 06:36:05;;;;;;;20.77;13.43;;;6.70;92.40;;;;;;4971198;28;20057;-86
2020/12/03 06:39:17;;;;;;;16.65;12.55;;;6.70;92.40;;;;;;5032796;28;20112;-86
2020/12/03 06:42:10;;;;;;;17.70;12.25;;;6.70;92.40;;;;;;5021201;28;20042;-86
2020/12/03 06:45:02;;;;;;;18.10;12.43;;;6.70;92.40;;;;;;5065868;28;20029;-88
2020/12/03 06:47:35;;;;;;;;;;;6.70;92.40;;;;;;5035249;28;20029;-85
2020/12/03 06:50:32;;;;;;;;;;;;;;;;;;;;;
2020/12/03 06:53:31;;;;;;;16.98;11.40;;;6.70;92.50;;;;;;5033164;28;20021;-86
2020/12/03 06:56:15;;;;;;;15.13;11.38;;;6.70;92.50;;;;;;5050252;28;20028;-85
2020/12/03 06:59:08;;;;;;;17.50;11.32;;;6.70;92.50;;;;;;5042717;28;20029;-87
2020/12/03 07:02:02;;;;;;;16.23;11.07;;;6.70;92.50;;;;;;5068894;28;20068;-85
2020/12/03 07:04:50;;;;;;;12.68;10.32;;;6.70;92.60;;;;;;5032552;28;20049;-86
2020/12/03 07:07:18;;;;;;;15.90;11.25;;;6.70;92.50;;;;;;5065318;28;20033;-86
2020/12/03 07:10:01;;;;;;;18.92;12.40;;;6.80;92.60;;;;;;5033552;28;20441;-86
2020/12/03 07:13:00;;;;;;;17.80;11.68;;;6.70;92.50;;;;;;5045246;28;20033;-86
2020/12/03 07:16:13;;;;;;;15.88;11.13;;;6.70;92.50;;;;;;5032058;28;20048;-86
2020/12/03 07:19:23;;;;;;;15.07;10.80;;;6.80;92.60;;;;;;4994364;28;20037;-87
2020/12/03 07:22:22;;;;;;;18.48;12.18;;;6.70;92.60;;;;;;5026153;28;20087;-86
2020/12/03 07:25:07;;;;;;;14.48;11.05;;;6.70;92.60;;;;;;5041589;28;20029;-86
2020/12/03 07:27:41;;;;;;;19.95;13.05;;;6.70;92.60;;;;;;5017217;28;20461;-86
2020/12/03 07:30:35;;;;;;;19.13;13.45;;;6.70;92.60;;;;;;5042564;28;20025;-86
2020/12/03 07:36:48;;;;;;;23.15;14.88;;;6.70;92.60;;;;;;5035970;28;20091;-86
2020/12/03 07:39:36;;;;;;;20.70;14.15;;;6.70;92.60;;;;;;5009563;28;20029;-86
2020/12/03 07:42:06;;;;;;;23.15;14.60;;;6.70;92.60;;;;;;5048153;28;20037;-86
2020/12/03 07:44:53;;;;;;;21.10;14.73;;;6.70;92.60;;;;;;5036332;28;20031;-86
2020/12/03 07:47:41;;;;;;;26.60;16.55;;;6.70;92.60;;;;;;5033661;28;20048;-87
2020/12/03 07:50:35;;;;;;;25.25;15.77;;;6.70;92.60;;;;;;5033076;28;20025;-86
2020/12/03 07:53:20;;;;;;;25.80;15.80;;;6.70;92.80;;;;;;5065786;28;20021;-86
2020/12/03 07:55:56;;;;;;;;;;;;;;;;;;;;;
2020/12/03 08:01:31;;;;;;;21.73;14.60;;;6.70;92.60;;;;;;5057805;28;20044;-85
2020/12/03 08:04:10;;;;;;;;;;;;;;;;;;;;;
2020/12/03 08:06:41;;;;;;;21.45;13.93;;;6.70;92.60;;;;;;5049351;28;20029;-86
2020/12/03 08:09:17;;;;;;;;;;;;;;;;;;;;;
2020/12/03 08:11:56;;;;;;;21.75;14.52;;;6.70;92.60;;;;;;5057632;28;20385;-87
2020/12/03 08:14:53;;;;;;;25.33;15.38;;;6.70;92.60;;;;;;5049722;28;20382;-86
2020/12/03 08:17:27;;;;;;;20.63;14.63;;;6.70;92.60;;;;;;5068429;28;20017;-86
2020/12/03 08:20:06;;;;;;;19.08;13.93;;;6.70;92.50;;;;;;5052240;28;20120;-86
2020/12/03 08:22:53;;;;;;;19.95;13.85;;;6.70;92.50;;;;;;5087086;28;20409;-86
2020/12/03 08:25:37;;;;;;;20.85;13.07;;;6.70;92.50;;;;;;5049564;28;20021;-86
2020/12/03 08:28:09;;;;;;;19.90;13.00;;;6.70;92.50;;;;;;5054061;28;20393;-85
2020/12/03 08:30:44;;;;;;;19.70;12.35;;;6.70;92.80;;;;;;5051022;28;20021;-86
2020/12/03 08:33:42;;;;;;;20.08;13.50;;;6.70;92.60;;;;;;5048053;28;20048;-87
2020/12/03 08:36:24;;;;;;;20.38;13.20;;;6.70;92.60;;;;;;5063674;28;20086;-86
2020/12/03 08:39:17;;;;;;;24.33;13.52;;;6.70;92.60;;;;;;5049372;28;20044;-87
2020/12/03 08:41:43;;;;;;;23.02;13.93;;;6.70;92.60;;;;;;5051530;28;20037;-86
2020/12/03 08:44:19;;;;;;;19.10;13.05;;;6.70;92.60;;;;;;5040075;28;20525;-86
2020/12/03 08:46:54;;;;;;;22.45;14.43;;;6.70;92.60;;;;;;5048621;28;20021;-86
2020/12/03 08:49:28;;;;;;;24.33;12.73;;;6.70;92.60;;;;;;5064492;28;20596;-86
2020/12/03 08:52:06;;;;;;;23.25;12.75;;;6.70;92.60;;;;;;5043421;28;20120;-86
2020/12/03 08:54:44;;;;;;;19.02;13.00;;;6.80;92.60;;;;;;5032917;28;20029;-86
2020/12/03 08:57:16;;;;;;;23.95;13.90;;;6.70;92.60;;;;;;5051270;28;20058;-86
2020/12/03 08:59:56;;;;;;;18.80;12.57;;;6.80;92.60;;;;;;5049898;28;20391;-86
2020/12/03 09:02:42;;;;;;;22.55;12.40;;;6.80;92.60;;;;;;5047564;28;20052;-85
2020/12/03 09:05:19;;;;;;;19.75;12.25;;;6.80;92.60;;;;;;5044706;28;20033;-86
2020/12/03 09:07:57;;;;;;;18.83;12.13;;;6.80;92.60;;;;;;5067787;28;20070;-85
2020/12/03 09:10:26;;;;;;;21.42;12.25;;;6.80;92.60;;;;;;5056732;28;20435;-86
2020/12/03 09:13:01;;;;;;;21.02;12.75;;;6.80;92.60;;;;;;5048267;28;20037;-89
2020/12/03 09:15:31;;;;;;;23.95;13.52;;;6.80;92.50;;;;;;5051915;28;20547;-86
2020/12/03 09:18:02;;;;;;;20.00;12.98;;;6.80;92.50;;;;;;5049584;28;20132;-86
2020/12/03 09:20:52;;;;;;;20.63;13.40;;;6.80;92.50;;;;;;5045612;28;20482;-85
2020/12/03 09:23:31;;;;;;;21.65;14.43;;;6.80;92.50;;;;;;5045688;28;20066;-85
2020/12/03 09:26:07;;;;;;;;;;;;;;;;;;;;;
2020/12/03 09:28:46;;;;;;;22.25;14.40;;;6.80;92.50;;;;;;5046593;28;20022;-85
2020/12/03 09:31:18;;;;;;;19.60;13.02;;;6.80;92.50;;;;;;5049451;28;20024;-85
2020/12/03 09:33:54;;;;;;;21.00;13.30;;;6.80;92.50;;;;;;5044433;28;20037;-85
2020/12/03 09:36:23;;;;;;;19.63;13.45;;;6.80;92.50;;;;;;5043033;28;20025;-85
2020/12/03 09:38:54;;;;;;;21.50;12.90;;;6.80;92.50;;;;;;5086923;28;20021;-87
2020/12/03 09:41:37;;;;;;;19.38;13.80;;;6.80;92.50;;;;;;5037341;28;20033;-86
2020/12/03 09:44:12;;;;;;;24.20;13.65;;;6.80;92.50;;;;;;5044738;28;20032;-85
2020/12/03 09:46:57;;;;;;;19.50;13.50;;;6.80;92.50;;;;;;5053978;28;20025;-87
2020/12/03 09:49:27;;;;;;;22.23;14.80;;;6.80;92.50;;;;;;5049485;28;20374;-87
2020/12/03 09:52:03;;;;;;;;;;;;;;;;;;;;;
2020/12/03 09:54:29;;;;;;;21.40;13.95;;;6.80;92.50;;;;;;5033552;28;20033;-86
2020/12/03 09:57:12;;;;;;;24.05;15.20;;;6.80;92.40;;;;;;5032664;28;20537;-86
2020/12/03 10:00:00;;;;;;;;;;;;;;;;;;;;;
2020/12/03 10:03:11;;;;;;;25.33;15.38;;;6.80;92.40;;;;;;5018967;28;20045;-85
2020/12/03 10:06:04;;;;;;;20.52;13.60;;;6.80;92.50;;;;;;5024209;28;20049;-85
2020/12/03 10:08:51;;;;;;;20.65;13.15;;;6.80;92.40;;;;;;5033175;28;20036;-85
2020/12/03 10:11:54;;;;;;;20.20;12.95;;;6.80;92.40;;;;;;5032221;28;20025;-84
2020/12/03 10:14:35;;;;;;;21.30;12.85;;;6.80;92.40;;;;;;5042193;28;20107;-84
2020/12/03 10:17:14;;;;;;;20.35;12.50;;;6.80;92.40;;;;;;5053871;28;20025;-85
2020/12/03 10:20:25;;;;;;;21.67;14.20;;;6.80;92.50;;;;;;5052730;28;20120;-85
2020/12/03 10:23:13;;;;;;;20.45;13.90;;;6.80;92.50;;;;;;5046993;28;20048;-86
2020/12/03 10:25:50;;;;;;;21.77;14.35;;;6.80;92.40;;;;;;5051653;28;20482;-86
2020/12/03 10:28:39;;;;;;;19.55;12.68;;;6.80;92.40;;;;;;5051819;28;20043;-85
2020/12/03 10:31:09;;;;;;;22.58;13.57;;;6.70;92.50;;;;;;5062366;28;20456;-86
2020/12/03 10:33:55;;;;;;;20.45;13.15;;;6.80;92.50;;;;;;5072443;28;20020;-86
2020/12/03 10:36:54;;;;;;;22.17;14.60;;;6.80;92.50;;;;;;5073267;28;20029;-86
2020/12/03 10:39:50;;;;;;;20.13;13.07;;;6.70;92.50;;;;;;5047433;28;20818;-86
2020/12/03 10:42:26;;;;;;;21.08;13.35;;;6.70;92.50;;;;;;5050859;28;20041;-86
2020/12/03 10:45:16;;;;;;;21.92;13.73;;;6.70;92.50;;;;;;5085933;28;20059;-86
2020/12/03 10:48:01;;;;;;;19.83;12.15;;;6.70;92.50;;;;;;5052321;28;20595;-86
2020/12/03 10:50:59;;;;;;;22.95;14.50;;;6.80;92.50;;;;;;5052058;28;20025;-86
2020/12/03 10:53:33;;;;;;;21.27;13.57;;;6.70;92.40;;;;;;5050933;28;20039;-86
2020/12/03 10:56:12;;;;;;;25.48;16.33;;;6.70;92.40;;;;;;5053352;28;20453;-86
2020/12/03 10:59:30;;;;;;;24.88;15.98;;;6.70;92.40;;;;;;5052940;28;20036;-86
2020/12/03 11:02:03;;;;;;;26.30;15.13;;;6.80;92.40;;;;;;5048165;28;20063;-86
2020/12/03 11:04:49;;;;;;;23.00;14.90;;;6.70;92.40;;;;;;5040472;28;20124;-85
2020/12/03 11:07:15;;;;;;;24.88;15.75;;;6.80;92.40;;;;;;5085305;28;20128;-86
2020/12/03 11:09:49;;;;;;;19.95;14.65;;;6.70;92.40;;;;;;5051352;28;20104;-86
2020/12/03 11:12:38;;;;;;;25.92;14.43;;;6.70;92.40;;;;;;5044458;28;20029;-85
2020/12/03 11:15:21;;;;;;;22.90;14.45;;;6.70;92.40;;;;;;5048972;28;20025;-85
2020/12/03 11:18:01;;;;;;;23.92;14.60;;;6.70;92.40;;;;;;5052691;28;20053;-85
2020/12/03 11:20:36;;;;;;;22.20;14.32;;;6.70;92.40;;;;;;5052279;28;20028;-85
2020/12/03 11:23:15;;;;;;;22.50;14.88;;;6.80;92.70;;;;;;5051381;28;20037;-86
2020/12/03 11:25:50;;;;;;;21.80;14.27;;;6.80;92.40;;;;;;5038987;28;20025;-85
2020/12/03 11:28:40;;;;;;;20.83;13.98;;;6.80;92.40;;;;;;5081987;28;20032;-86
2020/12/03 11:31:07;;;;;;;22.92;14.65;;;6.80;92.40;;;;;;5044805;28;20029;-84
2020/12/03 11:33:36;;;;;;;22.75;14.38;;;6.80;92.40;;;;;;5046538;28;20067;-85
2020/12/03 11:36:08;;;;;;;21.42;13.88;;;6.80;92.40;;;;;;5047620;28;20025;-84
2020/12/03 11:38:41;;;;;;;21.23;14.80;;;6.80;92.40;;;;;;5051121;28;20013;-85
2020/12/03 11:41:17;;;;;;;21.45;14.30;;;6.80;92.40;;;;;;5044507;28;20033;-85
2020/12/03 11:49:41;;;;;;;25.83;15.52;;;6.80;92.30;;;;;;5026338;28;20383;-88
2020/12/03 11:52:16;;;;;;;21.93;14.37;;;6.90;92.40;;;;;;5034495;28;20036;-85
2020/12/03 11:54:54;;;;;;;20.48;13.98;;;6.90;92.30;;;;;;5024075;28;20763;-86
2020/12/03 11:57:24;;;;;;;19.65;13.15;;;6.90;92.30;;;;;;5046631;28;20098;-86
2020/12/03 11:59:52;;;;;;;20.77;13.27;;;6.90;92.30;;;;;;5033504;28;20025;-86
2020/12/03 12:02:23;;;;;;;19.02;12.98;;;6.90;92.30;;;;;;5044982;28;20076;-86
2020/12/03 12:04:59;;;;;;;18.00;12.30;;;6.90;92.30;;;;;;5024182;28;20045;-86
2020/12/03 12:07:48;;;;;;;20.20;13.23;;;6.90;92.30;;;;;;5040832;28;20021;-87
2020/12/03 12:12:57;;;;;;;20.10;13.18;;;6.90;92.20;;;;;;5056333;28;20075;-86
2020/12/03 12:15:34;;;;;;;19.83;11.85;;;6.90;92.20;;;;;;5043006;28;20021;-86
2020/12/03 12:18:15;;;;;;;16.85;11.98;;;6.90;92.20;;;;;;5063192;28;20447;-86
2020/12/03 12:21:04;;;;;;;18.80;11.00;;;6.90;92.20;;;;;;5035058;28;20022;-85
2020/12/03 12:24:00;;;;;;;16.20;11.07;;;6.90;92.20;;;;;;5001089;28;20483;-85
2020/12/03 12:26:58;;;;;;;;;;;;;;;;;;;;;
2020/12/03 12:29:50;;;;;;;15.98;10.48;;;6.90;92.20;;;;;;5035492;28;20047;-86
2020/12/03 12:32:21;;;;;;;16.92;11.57;;;6.90;92.20;;;;;;5019885;28;20057;-86
2020/12/03 12:35:19;;;;;;;16.85;11.05;;;6.90;92.20;;;;;;5066688;28;20048;-85
2020/12/03 12:37:55;;;;;;;16.17;10.85;;;6.90;92.10;;;;;;5036578;28;20048;-87
2020/12/03 12:40:24;;;;;;;15.75;9.88;;;6.90;92.10;;;;;;5045296;28;20037;-88
2020/12/03 12:42:54;;;;;;;15.35;9.40;;;6.90;92.10;;;;;;5035044;28;20099;-87
2020/12/03 12:45:44;;;;;;;16.60;10.30;;;6.90;92.10;;;;;;5067885;28;20036;-87
2020/12/03 12:48:21;;;;;;;14.75;10.40;;;7.00;92.10;;;;;;5044033;28;20439;-86
2020/12/03 12:51:11;;;;;;;;;;;;;;;;;;;;;
2020/12/03 12:53:52;;;;;;;29.27;18.27;;;7.00;92.00;;;;;;5031302;28;20034;-86
2020/12/03 12:56:42;;;;;;;19.13;12.18;;;7.00;92.00;;;;;;5070142;28;20103;-89
2020/12/03 12:59:41;;;;;;;15.20;10.15;;;7.00;92.00;;;;;;5039864;28;20470;-88
2020/12/03 13:02:39;;;;;;;;;;;;;;;;;;;;;
2020/12/03 13:05:18;;;;;;;12.32;9.07;;;7.00;92.00;;;;;;5041018;28;20057;-90
2020/12/03 13:08:43;;;;;;;13.80;8.95;;;7.00;92.00;;;;;;5037785;28;20040;-89
2020/12/03 13:11:21;;;;;;;10.57;8.20;;;7.00;92.00;;;;;;5044846;28;20106;-88
2020/12/03 13:14:26;;;;;;;12.70;9.13;;;7.00;92.00;;;;;;5048628;28;20025;-90
2020/12/03 13:17:00;;;;;;;11.68;8.30;;;6.90;92.00;;;;;;5055865;28;20037;-88
2020/12/03 13:19:35;;;;;;;11.55;8.23;;;6.90;92.00;;;;;;5012327;28;20033;-88
2020/12/03 13:36:15;;;;;;;7.90;6.07;;;7.00;92.00;;;;;;4921210;29;20040;-87
2020/12/03 13:39:19;;;;;;;;;;;;;;;;;;;;;
2020/12/03 13:42:48;;;;;;;8.18;6.20;;;7.00;92.00;;;;;;4954308;28;20484;-89
2020/12/03 13:45:39;;;;;;;;;;;;;;;;;;;;;
2020/12/03 13:48:54;;;;;;;8.48;6.43;;;6.90;91.90;;;;;;5034556;28;20043;-89
2020/12/03 13:52:04;;;;;;;;;;;;;;;;;;;;;
2020/12/03 13:54:34;;;;;;;8.98;6.28;;;6.90;91.90;;;;;;5040751;28;20033;-86
2020/12/03 13:57:33;;;;;;;8.55;6.15;;;6.90;91.90;;;;;;5040803;28;20382;-84
2020/12/03 14:00:24;;;;;;;10.15;6.30;;;7.00;91.90;;;;;;5058914;28;20028;-85
2020/12/03 14:03:08;;;;;;;7.45;5.30;;;6.90;91.90;;;;;;5056442;28;20055;-88
2020/12/03 14:05:44;;;;;;;8.07;5.10;;;6.90;91.80;;;;;;5051214;28;20029;-86
2020/12/03 14:08:10;;;;;;;7.10;5.53;;;6.90;91.90;;;;;;5029437;28;20045;-85
2020/12/03 14:11:08;;;;;;;6.55;5.38;;;6.90;91.80;;;;;;5043991;28;20531;-86
2020/12/03 14:13:45;;;;;;;7.22;5.63;;;6.90;91.80;;;;;;5042436;28;20481;-85
2020/12/03 14:16:26;;;;;;;6.97;4.93;;;6.90;91.80;;;;;;5036965;28;20421;-88
2020/12/03 14:19:30;;;;;;;6.65;4.97;;;6.90;91.90;;;;;;5031207;28;20057;-87
2020/12/03 14:22:28;;;;;;;;;;;;;;;;;;;;;
2020/12/03 14:28:28;;;;;;;6.13;4.75;;;6.90;91.90;;;;;;5037884;28;20037;-87
2020/12/03 14:34:11;;;;;;;5.28;3.85;;;6.90;91.90;;;;;;4965239;28;20117;-87
2020/12/03 14:36:50;;;;;;;;;;;;;;;;;;;;;
2020/12/03 14:39:30;;;;;;;;;;;;;;;;;;;;;
2020/12/03 14:42:07;;;;;;;6.75;4.72;;;6.80;91.90;;;;;;5034297;28;20034;-85